createdAt,value
2018-03-28T00:00:10.255Z,25.03
2018-03-28T00:02:38.693Z,29.70
2018-03-28T00:05:07.015Z,28.90
2018-03-28T00:07:35.481Z,27.23
2018-03-28T00:10:03.799Z,26.37
2018-03-28T00:12:32.108Z,25.90
2018-03-28T00:15:00.487Z,24.80
2018-03-28T00:17:28.819Z,31.70
2018-03-28T00:19:57.253Z,31.77
2018-03-28T00:22:25.577Z,29.73
2018-03-28T00:24:54.006Z,33.07
2018-03-28T00:27:22.350Z,29.47
2018-03-28T00:29:50.712Z,25.70
2018-03-28T00:32:19.138Z,26.77
2018-03-28T00:34:47.705Z,27.87
2018-03-28T00:37:16.110Z,33.97
2018-03-28T00:39:44.476Z,25.47
2018-03-28T00:42:12.887Z,27.13
2018-03-28T00:44:41.227Z,28.10
2018-03-28T00:47:10.435Z,25.43
2018-03-28T00:49:38.775Z,26.70
2018-03-28T00:52:07.086Z,24.00
2018-03-28T00:54:35.428Z,31.67
2018-03-28T00:57:03.739Z,29.27
2018-03-28T00:59:32.124Z,26.83
2018-03-28T01:02:00.502Z,24.57
2018-03-28T01:04:28.851Z,27.93
2018-03-28T01:06:57.210Z,25.60
2018-03-28T01:09:25.587Z,26.20
2018-03-28T01:11:53.895Z,24.87
2018-03-28T01:14:22.236Z,21.53
2018-03-28T01:16:50.554Z,24.27
2018-03-28T01:19:18.950Z,19.33
2018-03-28T01:21:47.287Z,23.40
2018-03-28T01:24:15.704Z,19.20
2018-03-28T01:26:44.081Z,20.50
2018-03-28T01:29:12.449Z,17.87
2018-03-28T01:31:41.755Z,18.00
2018-03-28T01:34:10.072Z,20.53
2018-03-28T01:36:38.517Z,16.57
2018-03-28T01:39:06.831Z,25.50
2018-03-28T01:41:35.172Z,20.67
2018-03-28T01:44:03.510Z,20.90
2018-03-28T01:46:32.798Z,17.23
2018-03-28T01:49:01.134Z,19.57
2018-03-28T01:51:29.506Z,19.50
2018-03-28T01:53:57.880Z,16.70
2018-03-28T01:56:26.205Z,16.33
2018-03-28T01:58:54.518Z,20.83
2018-03-28T02:01:22.882Z,16.80
2018-03-28T02:03:51.297Z,22.40
2018-03-28T02:06:19.661Z,18.60
2018-03-28T02:08:48.003Z,19.43
2018-03-28T02:11:16.415Z,21.20
2018-03-28T02:13:44.795Z,18.73
2018-03-28T02:16:13.179Z,17.93
2018-03-28T02:18:41.555Z,16.30
2018-03-28T02:21:09.883Z,17.03
2018-03-28T02:23:38.232Z,16.57
2018-03-28T02:26:06.550Z,16.77
2018-03-28T02:28:34.887Z,20.17
2018-03-28T02:31:03.342Z,16.77
2018-03-28T02:33:31.666Z,15.90
2018-03-28T02:36:00.027Z,14.77
2018-03-28T02:38:28.380Z,16.37
2018-03-28T02:40:56.740Z,18.70
2018-03-28T02:43:25.128Z,16.27
2018-03-28T02:45:53.463Z,17.53
2018-03-28T02:48:21.889Z,18.03
2018-03-28T02:50:50.234Z,16.10
2018-03-28T02:53:18.573Z,15.57
2018-03-28T02:55:46.903Z,16.07
2018-03-28T02:58:15.231Z,16.57
2018-03-28T03:00:43.562Z,13.53
2018-03-28T03:03:11.887Z,13.10
2018-03-28T03:05:40.234Z,14.53
2018-03-28T03:08:08.543Z,16.47
2018-03-28T03:10:36.884Z,13.77
2018-03-28T03:13:05.254Z,15.30
2018-03-28T03:15:33.608Z,14.97
2018-03-28T03:18:01.931Z,12.33
2018-03-28T03:20:30.303Z,12.67
2018-03-28T03:22:58.681Z,13.63
2018-03-28T03:25:27.030Z,12.90
2018-03-28T03:27:56.373Z,14.87
2018-03-28T03:30:24.735Z,14.57
2018-03-28T03:32:53.105Z,16.70
2018-03-28T03:35:21.426Z,10.57
2018-03-28T03:37:49.774Z,13.87
2018-03-28T03:40:18.105Z,17.47
2018-03-28T03:42:46.454Z,15.03
2018-03-28T03:45:14.798Z,14.70
2018-03-28T03:47:43.182Z,17.03
2018-03-28T03:50:11.592Z,16.33
2018-03-28T03:52:39.940Z,13.20
2018-03-28T03:55:08.275Z,13.93
2018-03-28T03:57:36.654Z,10.80
2018-03-28T04:00:05.085Z,11.50
2018-03-28T04:02:33.443Z,13.33
2018-03-28T04:05:01.755Z,8.83
2018-03-28T04:07:30.106Z,12.93
2018-03-28T04:09:58.478Z,9.93
2018-03-28T04:12:26.854Z,10.67
2018-03-28T04:14:55.232Z,8.00
2018-03-28T04:17:23.605Z,8.93
2018-03-28T04:19:51.966Z,10.40
2018-03-28T04:22:20.361Z,9.60
2018-03-28T04:24:48.742Z,13.53
2018-03-28T04:27:17.122Z,10.90
2018-03-28T04:29:45.511Z,6.33
2018-03-28T04:32:13.877Z,7.17
2018-03-28T04:34:42.224Z,6.47
2018-03-28T04:37:10.545Z,6.23
2018-03-28T04:39:38.898Z,7.93
2018-03-28T04:42:07.291Z,6.50
2018-03-28T04:44:36.591Z,6.00
2018-03-28T04:47:04.891Z,7.23
2018-03-28T04:49:33.251Z,5.60
2018-03-28T04:52:01.626Z,4.63
2018-03-28T04:54:30.011Z,5.83
2018-03-28T04:56:58.345Z,5.67
2018-03-28T04:59:26.666Z,7.00
2018-03-28T05:01:55.014Z,4.20
2018-03-28T05:04:23.422Z,5.07
2018-03-28T05:06:51.739Z,3.87
2018-03-28T05:09:20.074Z,3.90
2018-03-28T05:11:48.407Z,3.20
2018-03-28T05:14:16.757Z,3.80
2018-03-28T05:16:45.108Z,3.40
2018-03-28T05:19:13.491Z,6.83
2018-03-28T05:21:41.804Z,3.97
2018-03-28T05:24:10.243Z,2.33
2018-03-28T05:26:38.543Z,3.20
2018-03-28T05:29:07.240Z,2.97
2018-03-28T05:31:35.535Z,3.10
2018-03-28T05:34:03.871Z,2.57
2018-03-28T05:36:32.189Z,2.70
2018-03-28T05:39:00.515Z,3.97
2018-03-28T05:41:28.850Z,1.80
2018-03-28T05:43:57.198Z,2.10
2018-03-28T05:46:25.502Z,1.83
2018-03-28T05:48:53.926Z,4.97
2018-03-28T05:51:22.267Z,1.70
2018-03-28T05:53:50.672Z,2.60
2018-03-28T05:56:19.011Z,1.93
2018-03-28T05:58:47.331Z,1.70
2018-03-28T06:01:15.675Z,2.27
2018-03-28T06:03:43.988Z,2.03
2018-03-28T06:06:12.353Z,2.30
2018-03-28T06:08:40.680Z,3.13
2018-03-28T06:11:09.002Z,2.20
2018-03-28T06:13:37.314Z,4.63
2018-03-28T06:16:05.671Z,3.30
2018-03-28T06:18:34.050Z,6.67
2018-03-28T06:21:02.422Z,4.17
2018-03-28T06:23:30.720Z,3.00
2018-03-28T06:25:59.094Z,4.23
2018-03-28T06:28:27.392Z,3.43
2018-03-28T06:30:55.734Z,4.63
2018-03-28T06:33:24.118Z,3.60
2018-03-28T06:35:52.599Z,4.43
2018-03-28T06:38:20.939Z,5.73
2018-03-28T06:40:49.329Z,5.87
2018-03-28T06:43:17.743Z,4.43
2018-03-28T06:45:46.106Z,6.10
2018-03-28T06:48:14.445Z,6.73
2018-03-28T06:50:42.755Z,6.47
2018-03-28T06:53:11.144Z,7.30
2018-03-28T06:55:39.522Z,7.70
2018-03-28T06:58:07.858Z,14.40
2018-03-28T07:00:36.180Z,7.73
2018-03-28T07:03:04.529Z,10.97
2018-03-28T07:05:32.871Z,6.63
2018-03-28T07:08:01.233Z,7.40
2018-03-28T07:10:29.546Z,10.20
2018-03-28T07:12:57.873Z,5.43
2018-03-28T07:15:26.209Z,8.23
2018-03-28T07:17:54.543Z,8.83
2018-03-28T07:20:22.891Z,12.73
2018-03-28T07:22:51.247Z,6.07
2018-03-28T07:25:19.591Z,6.67
2018-03-28T07:27:47.948Z,6.40
2018-03-28T07:30:16.247Z,7.80
2018-03-28T07:32:44.558Z,6.73
2018-03-28T07:35:12.903Z,13.20
2018-03-28T07:37:41.238Z,8.57
2018-03-28T07:40:09.582Z,6.70
2018-03-28T07:42:37.894Z,5.70
2018-03-28T07:45:06.285Z,6.30
2018-03-28T07:47:34.589Z,9.07
2018-03-28T07:50:02.932Z,8.83
2018-03-28T07:52:31.303Z,4.97
2018-03-28T07:54:59.683Z,8.13
2018-03-28T07:57:28.894Z,5.93
2018-03-28T07:59:57.226Z,6.80
2018-03-28T08:02:25.531Z,6.33
2018-03-28T08:04:53.867Z,5.60
2018-03-28T08:07:22.171Z,7.13
2018-03-28T08:09:50.508Z,6.73
2018-03-28T08:12:18.818Z,6.60
2018-03-28T08:14:47.179Z,7.07
2018-03-28T08:17:15.590Z,5.37
2018-03-28T08:19:43.977Z,5.23
2018-03-28T08:22:12.283Z,6.70
2018-03-28T08:24:40.590Z,6.10
2018-03-28T08:27:08.930Z,8.57
2018-03-28T08:29:37.244Z,4.73
2018-03-28T08:32:05.586Z,4.90
2018-03-28T08:34:33.950Z,5.33
2018-03-28T08:37:02.336Z,3.53
2018-03-28T08:39:30.703Z,3.20
2018-03-28T08:41:59.031Z,5.13
2018-03-28T08:44:27.331Z,6.43
2018-03-28T08:46:55.653Z,4.93
2018-03-28T08:49:23.967Z,3.37
2018-03-28T08:51:52.395Z,11.93
2018-03-28T08:54:20.710Z,2.77
2018-03-28T08:56:49.083Z,6.80
2018-03-28T08:59:17.406Z,6.70
2018-03-28T09:01:45.748Z,8.53
2018-03-28T09:04:15.041Z,4.93
2018-03-28T09:06:43.388Z,7.60
2018-03-28T09:09:11.766Z,6.63
2018-03-28T09:11:40.121Z,3.37
2018-03-28T09:14:08.439Z,4.03
2018-03-28T09:16:36.775Z,3.10
2018-03-28T09:19:05.094Z,4.00
2018-03-28T09:21:33.444Z,9.93
2018-03-28T09:24:01.823Z,5.03
2018-03-28T09:26:30.333Z,1.73
2018-03-28T09:28:58.672Z,7.20
2018-03-28T09:31:27.063Z,2.27
2018-03-28T09:33:55.403Z,6.23
2018-03-28T09:36:23.811Z,4.07
2018-03-28T09:38:52.187Z,4.17
2018-03-28T09:41:20.566Z,3.07
2018-03-28T09:43:48.942Z,3.60
2018-03-28T09:46:17.322Z,2.33
2018-03-28T09:48:45.774Z,2.03
2018-03-28T09:51:14.092Z,1.50
2018-03-28T09:53:42.413Z,2.00
2018-03-28T09:56:10.737Z,1.70
2018-03-28T09:58:39.105Z,2.13
2018-03-28T10:01:08.200Z,2.00
2018-03-28T10:03:42.081Z,2.97
2018-03-28T10:06:10.404Z,2.80
2018-03-28T10:08:38.756Z,6.00
2018-03-28T10:11:08.071Z,3.13
2018-03-28T10:13:36.391Z,5.60
2018-03-28T10:16:04.723Z,3.73
2018-03-28T10:18:33.080Z,1.97
2018-03-28T10:21:01.393Z,4.37
2018-03-28T10:23:29.719Z,2.53
2018-03-28T10:25:58.051Z,2.50
2018-03-28T10:28:26.359Z,5.30
2018-03-28T10:30:54.774Z,1.87
2018-03-28T10:33:23.231Z,3.47
2018-03-28T10:35:51.667Z,6.70
2018-03-28T10:38:19.971Z,4.77
2018-03-28T10:40:48.309Z,2.67
2018-03-28T10:43:16.682Z,3.37
2018-03-28T10:45:45.020Z,2.60
2018-03-28T10:48:13.338Z,3.50
2018-03-28T10:50:41.670Z,3.27
2018-03-28T10:53:10.014Z,3.80
2018-03-28T10:55:38.383Z,1.97
2018-03-28T10:58:06.705Z,4.17
2018-03-28T11:00:35.035Z,2.60
2018-03-28T11:03:03.410Z,6.80
2018-03-28T11:05:31.757Z,7.17
2018-03-28T11:08:00.087Z,3.00
2018-03-28T11:10:28.422Z,2.07
2018-03-28T11:12:56.731Z,4.83
2018-03-28T11:15:25.092Z,5.33
2018-03-28T11:17:53.470Z,2.70
2018-03-28T11:20:21.796Z,3.60
2018-03-28T11:22:50.128Z,5.83
2018-03-28T11:25:18.608Z,2.00
2018-03-28T11:27:46.982Z,2.83
2018-03-28T11:30:15.306Z,1.20
2018-03-28T11:32:43.631Z,1.90
2018-03-28T11:35:12.023Z,1.70
2018-03-28T11:37:40.385Z,1.73
2018-03-28T11:40:08.763Z,2.00
2018-03-28T11:42:37.143Z,3.33
2018-03-28T11:45:05.469Z,2.00
2018-03-28T11:47:34.203Z,1.60
2018-03-28T11:50:02.478Z,6.53
2018-03-28T11:52:30.818Z,3.23
2018-03-28T11:54:59.126Z,4.53
2018-03-28T11:57:27.471Z,1.80
2018-03-28T11:59:55.786Z,2.50
2018-03-28T12:02:24.166Z,3.23
2018-03-28T12:04:52.472Z,2.20
2018-03-28T12:07:20.810Z,1.93
2018-03-28T12:09:49.133Z,1.93
2018-03-28T12:12:17.469Z,2.07
2018-03-28T12:14:45.790Z,1.83
2018-03-28T12:17:14.118Z,1.70
2018-03-28T12:19:42.458Z,1.80
2018-03-28T12:22:10.771Z,2.20
2018-03-28T12:24:39.162Z,1.43
2018-03-28T12:27:07.531Z,1.40
2018-03-28T12:29:35.910Z,1.97
2018-03-28T12:32:04.265Z,0.90
2018-03-28T12:34:32.686Z,1.40
2018-03-28T12:37:01.066Z,2.00
2018-03-28T12:39:29.437Z,3.40
2018-03-28T12:41:57.759Z,1.50
2018-03-28T12:44:26.100Z,1.67
2018-03-28T12:46:54.417Z,4.53
2018-03-28T12:49:22.847Z,1.53
2018-03-28T12:51:51.174Z,1.37
2018-03-28T12:54:19.644Z,1.73
2018-03-28T12:56:47.930Z,1.70
2018-03-28T12:59:16.586Z,1.33
2018-03-28T13:01:44.939Z,1.40
2018-03-28T13:04:13.294Z,1.40
2018-03-28T13:06:41.603Z,1.37
2018-03-28T13:09:09.978Z,2.83
2018-03-28T13:11:38.350Z,1.83
2018-03-28T13:14:06.727Z,1.90
2018-03-28T13:16:35.152Z,3.70
2018-03-28T13:19:03.586Z,12.33
2018-03-28T13:21:31.934Z,2.90
2018-03-28T13:24:00.348Z,2.60
2018-03-28T13:26:28.747Z,2.23
2018-03-28T13:28:57.107Z,2.77
2018-03-28T13:31:25.451Z,2.63
2018-03-28T13:33:53.869Z,2.80
2018-03-28T13:36:22.247Z,2.70
2018-03-28T13:38:50.571Z,2.83
2018-03-28T13:41:19.909Z,1.83
2018-03-28T13:43:48.291Z,3.23
2018-03-28T13:46:16.638Z,2.67
2018-03-28T13:48:44.951Z,3.13
2018-03-28T13:51:13.371Z,3.00
2018-03-28T13:53:41.666Z,5.33
2018-03-28T13:56:10.014Z,3.00
2018-03-28T13:58:38.468Z,3.10
2018-03-28T14:01:06.869Z,3.50
2018-03-28T14:03:35.194Z,4.00
2018-03-28T14:06:03.540Z,9.27
2018-03-28T14:08:31.865Z,2.67
2018-03-28T14:11:00.203Z,7.70
2018-03-28T14:13:28.547Z,3.20
2018-03-28T14:15:56.895Z,4.20
2018-03-28T14:18:25.211Z,2.80
2018-03-28T14:20:53.563Z,2.70
2018-03-28T14:23:21.895Z,2.77
2018-03-28T14:25:50.227Z,3.60
2018-03-28T14:28:18.611Z,2.80
2018-03-28T14:30:46.935Z,4.03
2018-03-28T14:33:15.310Z,4.03
2018-03-28T14:35:43.662Z,5.50
2018-03-28T14:38:11.964Z,5.33
2018-03-28T14:40:40.271Z,3.27
2018-03-28T14:43:08.615Z,3.33
2018-03-28T14:45:36.934Z,3.60
2018-03-28T14:48:05.331Z,4.10
2018-03-28T14:50:33.660Z,6.43
2018-03-28T14:53:02.124Z,2.90
2018-03-28T14:55:30.411Z,3.37
2018-03-28T14:57:58.862Z,6.50
2018-03-28T15:00:27.171Z,3.27
2018-03-28T15:02:55.508Z,4.23
2018-03-28T15:05:23.822Z,3.60
2018-03-28T15:07:52.238Z,9.13
2018-03-28T15:10:20.562Z,3.50
2018-03-28T15:12:48.911Z,3.27
2018-03-28T15:15:17.232Z,9.07
2018-03-28T15:17:45.665Z,3.80
2018-03-28T15:20:13.990Z,4.40
2018-03-28T15:22:42.310Z,3.77
2018-03-28T15:25:10.655Z,3.57
2018-03-28T15:27:38.979Z,3.70
2018-03-28T15:30:07.325Z,4.20
2018-03-28T15:32:35.651Z,4.20
2018-03-28T15:35:03.982Z,4.73
2018-03-28T15:37:32.416Z,4.53
2018-03-28T15:40:00.750Z,5.90
2018-03-28T15:42:29.077Z,6.50
2018-03-28T15:44:57.469Z,5.13
2018-03-28T15:47:25.787Z,5.10
2018-03-28T15:49:54.166Z,4.73
2018-03-28T15:52:22.540Z,5.20
2018-03-28T15:54:50.886Z,5.77
2018-03-28T15:57:19.199Z,4.60
2018-03-28T15:59:47.555Z,4.80
2018-03-28T16:02:15.949Z,4.30
2018-03-28T16:04:44.306Z,3.43
2018-03-28T16:07:12.708Z,4.37
2018-03-28T16:09:41.060Z,5.00
2018-03-28T16:12:09.473Z,4.10
2018-03-28T16:14:37.808Z,3.33
2018-03-28T16:17:06.279Z,3.27
2018-03-28T16:19:34.563Z,2.93
2018-03-28T16:22:03.021Z,3.50
2018-03-28T16:24:31.332Z,4.00
2018-03-28T16:26:59.772Z,3.57
2018-03-28T16:29:28.159Z,3.73
2018-03-28T16:31:56.475Z,4.00
2018-03-28T16:34:24.805Z,6.33
2018-03-28T16:36:53.150Z,3.23
2018-03-28T16:39:21.465Z,6.70
2018-03-28T16:41:49.782Z,3.50
2018-03-28T16:44:18.107Z,3.00
2018-03-28T16:46:46.441Z,3.60
2018-03-28T16:49:14.848Z,5.10
2018-03-28T16:51:43.291Z,9.70
2018-03-28T16:54:11.599Z,4.57
2018-03-28T16:56:39.939Z,5.03
2018-03-28T16:59:08.474Z,5.03
2018-03-28T17:01:36.827Z,4.27
2018-03-28T17:04:05.135Z,3.67
2018-03-28T17:06:33.484Z,2.53
2018-03-28T17:09:01.820Z,5.43
2018-03-28T17:11:30.198Z,5.00
2018-03-28T17:13:58.527Z,2.80
2018-03-28T17:16:26.916Z,6.17
2018-03-28T17:18:55.296Z,3.20
2018-03-28T17:21:23.655Z,3.17
2018-03-28T17:23:52.021Z,2.60
2018-03-28T17:26:20.359Z,2.93
2018-03-28T17:28:48.707Z,2.70
2018-03-28T17:31:17.051Z,3.17
2018-03-28T17:33:45.390Z,2.03
2018-03-28T17:36:13.811Z,1.67
2018-03-28T17:38:42.200Z,2.43
2018-03-28T17:41:10.562Z,3.00
2018-03-28T17:43:38.905Z,45.70
2018-03-28T17:46:07.306Z,4.83
2018-03-28T17:48:35.680Z,1.83
2018-03-28T17:51:03.981Z,5.70
2018-03-28T17:53:32.374Z,3.33
2018-03-28T17:56:00.715Z,1.60
2018-03-28T17:58:29.075Z,2.17
2018-03-28T18:00:57.377Z,2.03
2018-03-28T18:03:25.727Z,1.33
2018-03-28T18:05:54.142Z,1.80
2018-03-28T18:08:22.489Z,1.23
2018-03-28T18:10:50.831Z,1.27
2018-03-28T18:13:19.194Z,1.60
2018-03-28T18:15:47.547Z,1.80
2018-03-28T18:18:15.903Z,2.30
2018-03-28T18:20:44.262Z,2.90
2018-03-28T18:23:12.576Z,22.30
2018-03-28T18:25:40.926Z,12.80
2018-03-28T18:28:09.228Z,1.80
2018-03-28T18:30:37.580Z,2.67
2018-03-28T18:33:05.902Z,4.13
2018-03-28T18:35:34.278Z,2.23
2018-03-28T18:38:02.662Z,3.07
2018-03-28T18:40:31.109Z,7.90
2018-03-28T18:42:59.315Z,0.80
2018-03-28T18:45:27.643Z,1.50
2018-03-28T18:47:56.347Z,7.70
2018-03-28T18:50:24.799Z,0.80
2018-03-28T18:52:53.142Z,1.20
2018-03-28T18:55:21.530Z,1.63
2018-03-28T18:57:49.840Z,1.70
2018-03-28T19:00:18.262Z,1.27
2018-03-28T19:02:46.588Z,70.27
2018-03-28T19:05:15.031Z,4.73
2018-03-28T19:07:44.068Z,3.90
2018-03-28T19:10:12.414Z,2.43
2018-03-28T19:12:40.792Z,1.00
2018-03-28T19:15:09.154Z,2.70
2018-03-28T19:17:37.494Z,2.17
2018-03-28T19:20:05.860Z,1.30
2018-03-28T19:22:34.195Z,1.93
2018-03-28T19:25:02.572Z,4.63
2018-03-28T19:27:31.045Z,1.90
2018-03-28T19:29:59.355Z,1.60
2018-03-28T19:32:27.687Z,1.80
2018-03-28T19:34:56.075Z,2.73
2018-03-28T19:37:24.457Z,1.83
2018-03-28T19:39:52.842Z,2.00
2018-03-28T19:42:21.163Z,4.00
2018-03-28T19:44:50.466Z,1.53
2018-03-28T19:47:18.796Z,2.00
2018-03-28T19:49:47.210Z,0.97
2018-03-28T19:52:15.545Z,1.73
2018-03-28T19:54:43.926Z,1.57
2018-03-28T19:57:12.256Z,1.10
2018-03-28T19:59:40.554Z,0.90
2018-03-28T20:02:08.986Z,13.40
2018-03-28T20:04:37.280Z,5.70
2018-03-28T20:07:05.721Z,1.20
2018-03-28T20:09:34.089Z,0.80
2018-03-28T20:12:02.427Z,1.27
2018-03-28T20:14:30.784Z,1.17
2018-03-28T20:16:59.130Z,1.90
2018-03-28T20:19:27.426Z,1.70
2018-03-28T20:21:55.742Z,1.57
2018-03-28T20:24:24.166Z,1.10
2018-03-28T20:26:52.483Z,2.17
2018-03-28T20:29:20.921Z,5.73
2018-03-28T20:31:49.302Z,1.57
2018-03-28T20:34:17.644Z,1.87
2018-03-28T20:36:45.961Z,2.10
2018-03-28T20:39:14.293Z,10.33
2018-03-28T20:41:42.607Z,1.00
2018-03-28T20:44:10.938Z,1.20
2018-03-28T20:46:39.283Z,1.37
2018-03-28T20:49:07.651Z,0.90
2018-03-28T20:51:36.019Z,0.70
2018-03-28T20:54:04.387Z,0.87
2018-03-28T20:56:32.771Z,0.77
2018-03-28T20:59:01.807Z,2.73
2018-03-28T21:01:30.215Z,0.80
2018-03-28T21:03:58.619Z,0.93
2018-03-28T21:06:26.930Z,1.00
2018-03-28T21:08:55.370Z,1.23
2018-03-28T21:11:23.687Z,1.40
2018-03-28T21:13:52.022Z,1.43
2018-03-28T21:16:20.410Z,1.00
2018-03-28T21:18:48.757Z,1.13
2018-03-28T21:21:17.058Z,0.97
2018-03-28T21:23:45.399Z,1.70
2018-03-28T21:26:13.710Z,0.93
2018-03-28T21:28:42.082Z,1.10
2018-03-28T21:31:10.419Z,1.63
2018-03-28T21:33:38.751Z,1.40
2018-03-28T21:36:07.091Z,2.60
2018-03-28T21:38:35.491Z,1.23
2018-03-28T21:41:03.877Z,1.57
2018-03-28T21:43:32.135Z,1.30
2018-03-28T21:46:00.460Z,1.50
2018-03-28T21:48:28.782Z,1.60
2018-03-28T21:50:57.182Z,1.30
2018-03-28T21:53:25.494Z,3.13
2018-03-28T21:55:53.836Z,1.33
2018-03-28T21:58:22.162Z,1.77
2018-03-28T22:00:50.501Z,1.83
2018-03-28T22:03:18.828Z,2.03
2018-03-28T22:05:47.160Z,1.90
2018-03-28T22:08:15.531Z,69.20
2018-03-28T22:10:43.889Z,7.50
2018-03-28T22:13:12.286Z,2.70
2018-03-28T22:15:40.651Z,2.70
2018-03-28T22:18:09.060Z,2.20
2018-03-28T22:20:37.424Z,1.70
2018-03-28T22:23:05.742Z,2.97
2018-03-28T22:25:34.089Z,2.40
2018-03-28T22:28:02.470Z,1.97
2018-03-28T22:30:30.842Z,2.60
2018-03-28T22:32:59.184Z,3.37
2018-03-28T22:35:27.492Z,1.83
2018-03-28T22:37:55.822Z,2.60
2018-03-28T22:40:24.142Z,2.83
2018-03-28T22:42:52.525Z,1.93
2018-03-28T22:45:20.835Z,1.97
2018-03-28T22:47:49.154Z,1.80
2018-03-28T22:50:17.495Z,1.73
2018-03-28T22:52:45.855Z,2.33
2018-03-28T22:55:14.174Z,1.93
2018-03-28T22:57:42.587Z,1.57
2018-03-28T23:00:10.967Z,1.40
2018-03-28T23:02:39.307Z,1.90
2018-03-28T23:05:07.730Z,1.10
2018-03-28T23:07:36.206Z,0.70
2018-03-28T23:10:04.633Z,0.80
2018-03-28T23:12:32.955Z,1.20
2018-03-28T23:15:01.262Z,1.03
2018-03-28T23:17:29.662Z,0.80
2018-03-28T23:19:58.012Z,1.03
2018-03-28T23:22:37.436Z,0.40
2018-03-28T23:25:05.739Z,0.90
2018-03-28T23:27:34.071Z,0.60
2018-03-28T23:30:02.370Z,1.63
2018-03-28T23:32:30.699Z,1.23
2018-03-28T23:34:59.034Z,0.40
2018-03-28T23:37:27.483Z,0.87
2018-03-28T23:39:55.844Z,0.90
2018-03-28T23:42:24.210Z,0.30
2018-03-28T23:44:52.646Z,0.30
2018-03-28T23:47:20.960Z,0.40
2018-03-28T23:49:49.305Z,0.23
2018-03-28T23:52:17.666Z,0.30
2018-03-28T23:54:46.005Z,0.60
2018-03-28T23:57:14.304Z,0.40
2018-03-28T23:59:42.693Z,0.27
